sensor_id;sensor_type;location;lat;lon;timestamp;pressure;altitude;pressure_sealevel;temperature;humidity
64544;BME280;50936;51.660;5.616;2022-08-04T00:00:11;100960.59;;;24.21;68.49
64544;BME280;50936;51.660;5.616;2022-08-04T00:08:49;100946.63;;;24.08;70.43
64544;BME280;50936;51.660;5.616;2022-08-04T00:11:25;100947.41;;;24.02;70.94
64544;BME280;50936;51.660;5.616;2022-08-04T00:14:01;100949.03;;;23.96;70.87
64544;BME280;50936;51.660;5.616;2022-08-04T00:16:35;100945.13;;;23.91;71.23
64544;BME280;50936;51.660;5.616;2022-08-04T00:19:29;100945.50;;;23.88;70.82
64544;BME280;50936;51.660;5.616;2022-08-04T00:22:06;100942.47;;;23.82;71.46
64544;BME280;50936;51.660;5.616;2022-08-04T00:24:35;100944.56;;;23.80;71.92
64544;BME280;50936;51.660;5.616;2022-08-04T00:27:03;100945.97;;;23.76;71.31
64544;BME280;50936;51.660;5.616;2022-08-04T00:29:31;100938.06;;;23.73;72.03
64544;BME280;50936;51.660;5.616;2022-08-04T00:32:00;100932.97;;;23.70;71.64
64544;BME280;50936;51.660;5.616;2022-08-04T00:34:30;100939.69;;;23.68;71.28
64544;BME280;50936;51.660;5.616;2022-08-04T00:36:59;100940.94;;;23.65;71.89
64544;BME280;50936;51.660;5.616;2022-08-04T00:39:26;100931.13;;;23.62;71.92
64544;BME280;50936;51.660;5.616;2022-08-04T00:48:29;100916.97;;;23.51;72.79
64544;BME280;50936;51.660;5.616;2022-08-04T01:00:10;100918.19;;;23.33;73.96
64544;BME280;50936;51.660;5.616;2022-08-04T01:05:30;100914.47;;;23.26;73.36
64544;BME280;50936;51.660;5.616;2022-08-04T01:11:45;100910.97;;;23.17;73.82
64544;BME280;50936;51.660;5.616;2022-08-04T01:17:27;100893.66;;;23.09;73.94
64544;BME280;50936;51.660;5.616;2022-08-04T01:20:07;100896.78;;;23.05;74.04
64544;BME280;50936;51.660;5.616;2022-08-04T01:23:17;100895.44;;;23.01;74.53
64544;BME280;50936;51.660;5.616;2022-08-04T01:26:03;100892.00;;;22.99;74.54
64544;BME280;50936;51.660;5.616;2022-08-04T01:29:05;100894.47;;;22.94;75.39
64544;BME280;50936;51.660;5.616;2022-08-04T01:32:03;100882.13;;;22.90;75.10
64544;BME280;50936;51.660;5.616;2022-08-04T01:34:42;100884.56;;;22.85;75.47
64544;BME280;50936;51.660;5.616;2022-08-04T01:40:07;100875.16;;;22.79;75.41
64544;BME280;50936;51.660;5.616;2022-08-04T01:42:36;100880.84;;;22.78;75.71
64544;BME280;50936;51.660;5.616;2022-08-04T01:45:09;100877.25;;;22.77;75.61
64544;BME280;50936;51.660;5.616;2022-08-04T01:47:48;100880.16;;;22.76;75.34
64544;BME280;50936;51.660;5.616;2022-08-04T01:50:17;100880.16;;;22.76;75.49
64544;BME280;50936;51.660;5.616;2022-08-04T01:52:45;100880.53;;;22.73;75.96
64544;BME280;50936;51.660;5.616;2022-08-04T01:55:17;100872.66;;;22.70;76.04
64544;BME280;50936;51.660;5.616;2022-08-04T01:57:47;100874.06;;;22.65;75.92
64544;BME280;50936;51.660;5.616;2022-08-04T02:00:24;100875.13;;;22.64;75.94
64544;BME280;50936;51.660;5.616;2022-08-04T02:02:54;100878.22;;;22.61;76.40
64544;BME280;50936;51.660;5.616;2022-08-04T02:05:24;100867.56;;;22.58;75.83
64544;BME280;50936;51.660;5.616;2022-08-04T02:08:33;100877.75;;;22.58;75.83
64544;BME280;50936;51.660;5.616;2022-08-04T02:11:14;100872.41;;;22.56;76.07
64544;BME280;50936;51.660;5.616;2022-08-04T02:14:23;100870.91;;;22.54;75.98
64544;BME280;50936;51.660;5.616;2022-08-04T02:17:10;100857.31;;;22.52;75.83
64544;BME280;50936;51.660;5.616;2022-08-04T02:20:11;100858.16;;;22.53;75.90
64544;BME280;50936;51.660;5.616;2022-08-04T02:23:09;100861.09;;;22.51;75.67
64544;BME280;50936;51.660;5.616;2022-08-04T02:25:57;100854.75;;;22.51;75.67
64544;BME280;50936;51.660;5.616;2022-08-04T02:28:43;100859.41;;;22.50;75.59
64544;BME280;50936;51.660;5.616;2022-08-04T02:31:38;100848.56;;;22.48;75.29
64544;BME280;50936;51.660;5.616;2022-08-04T02:34:45;100851.31;;;22.48;75.70
64544;BME280;50936;51.660;5.616;2022-08-04T02:37:19;100851.50;;;22.47;75.27
64544;BME280;50936;51.660;5.616;2022-08-04T02:39:52;100844.31;;;22.46;75.05
64544;BME280;50936;51.660;5.616;2022-08-04T02:42:20;100848.75;;;22.47;75.05
64544;BME280;50936;51.660;5.616;2022-08-04T02:44:49;100836.91;;;22.46;75.08
64544;BME280;50936;51.660;5.616;2022-08-04T02:47:20;100843.25;;;22.47;74.92
64544;BME280;50936;51.660;5.616;2022-08-04T02:50:10;100837.75;;;22.47;74.54
64544;BME280;50936;51.660;5.616;2022-08-04T02:52:53;100833.31;;;22.46;74.52
64544;BME280;50936;51.660;5.616;2022-08-04T02:55:24;100833.13;;;22.47;74.55
64544;BME280;50936;51.660;5.616;2022-08-04T02:57:57;100833.97;;;22.48;74.12
64544;BME280;50936;51.660;5.616;2022-08-04T03:00:27;100832.72;;;22.51;74.25
64544;BME280;50936;51.660;5.616;2022-08-04T03:16:02;100819.44;;;22.54;73.59
64544;BME280;50936;51.660;5.616;2022-08-04T03:28:51;100816.41;;;22.49;73.32
64544;BME280;50936;51.660;5.616;2022-08-04T03:47:18;100821.84;;;22.57;72.70
64544;BME280;50936;51.660;5.616;2022-08-04T03:50:02;100822.88;;;22.56;72.97
64544;BME280;50936;51.660;5.616;2022-08-04T03:53:20;100817.47;;;22.48;73.62
64544;BME280;50936;51.660;5.616;2022-08-04T03:59:13;100808.75;;;22.13;75.53
64544;BME280;50936;51.660;5.616;2022-08-04T04:17:43;100840.16;;;21.96;77.34
64544;BME280;50936;51.660;5.616;2022-08-04T04:29:16;100840.31;;;21.63;78.45
64544;BME280;50936;51.660;5.616;2022-08-04T04:32:03;100838.97;;;21.67;79.63
64544;BME280;50936;51.660;5.616;2022-08-04T04:46:59;100873.84;;;22.90;74.78
64544;BME280;50936;51.660;5.616;2022-08-04T04:49:58;100867.56;;;22.81;74.61
64544;BME280;50936;51.660;5.616;2022-08-04T04:52:55;100867.81;;;22.72;74.68
64544;BME280;50936;51.660;5.616;2022-08-04T04:55:34;100863.91;;;22.66;75.04
64544;BME280;50936;51.660;5.616;2022-08-04T04:58:16;100872.06;;;22.59;75.41
64544;BME280;50936;51.660;5.616;2022-08-04T05:19:27;100880.78;;;22.86;76.56
64544;BME280;50936;51.660;5.616;2022-08-04T05:22:13;100874.88;;;22.89;76.62
64544;BME280;50936;51.660;5.616;2022-08-04T05:24:50;100878.28;;;22.91;76.37
64544;BME280;50936;51.660;5.616;2022-08-04T05:27:30;100878.78;;;22.95;76.78
64544;BME280;50936;51.660;5.616;2022-08-04T05:30:07;100875.84;;;22.96;76.36
64544;BME280;50936;51.660;5.616;2022-08-04T05:32:54;100877.16;;;23.00;76.64
64544;BME280;50936;51.660;5.616;2022-08-04T05:35:30;100877.50;;;23.05;76.35
64544;BME280;50936;51.660;5.616;2022-08-04T05:38:34;100880.00;;;23.15;76.18
64544;BME280;50936;51.660;5.616;2022-08-04T05:41:04;100881.81;;;23.23;76.53
64544;BME280;50936;51.660;5.616;2022-08-04T05:43:36;100889.97;;;23.31;76.41
64544;BME280;50936;51.660;5.616;2022-08-04T05:46:07;100887.16;;;23.39;75.91
64544;BME280;50936;51.660;5.616;2022-08-04T05:48:36;100883.44;;;23.47;76.13
64544;BME280;50936;51.660;5.616;2022-08-04T05:51:08;100884.19;;;23.56;75.83
64544;BME280;50936;51.660;5.616;2022-08-04T05:53:37;100879.41;;;23.64;75.48
64544;BME280;50936;51.660;5.616;2022-08-04T05:56:10;100882.06;;;23.73;75.41
64544;BME280;50936;51.660;5.616;2022-08-04T05:58:40;100874.78;;;23.80;75.18
64544;BME280;50936;51.660;5.616;2022-08-04T06:01:09;100872.31;;;23.85;75.39
64544;BME280;50936;51.660;5.616;2022-08-04T06:03:38;100874.66;;;23.88;75.07
64544;BME280;50936;51.660;5.616;2022-08-04T06:06:07;100863.63;;;23.88;74.46
64544;BME280;50936;51.660;5.616;2022-08-04T06:08:36;100862.78;;;23.88;74.59
64544;BME280;50936;51.660;5.616;2022-08-04T06:11:05;100862.22;;;23.92;74.39
64544;BME280;50936;51.660;5.616;2022-08-04T06:13:50;100860.56;;;23.98;74.11
64544;BME280;50936;51.660;5.616;2022-08-04T06:16:24;100868.44;;;24.01;74.17
64544;BME280;50936;51.660;5.616;2022-08-04T06:19:00;100861.09;;;24.08;74.05
64544;BME280;50936;51.660;5.616;2022-08-04T06:21:53;100865.84;;;24.14;73.78
64544;BME280;50936;51.660;5.616;2022-08-04T06:24:23;100854.69;;;24.23;74.07
64544;BME280;50936;51.660;5.616;2022-08-04T06:26:54;100859.47;;;24.35;73.50
64544;BME280;50936;51.660;5.616;2022-08-04T06:29:25;100860.22;;;24.44;72.63
64544;BME280;50936;51.660;5.616;2022-08-04T06:32:17;100867.97;;;24.55;72.62
64544;BME280;50936;51.660;5.616;2022-08-04T06:35:07;100854.28;;;24.69;71.75
64544;BME280;50936;51.660;5.616;2022-08-04T06:37:36;100856.91;;;24.77;71.63
64544;BME280;50936;51.660;5.616;2022-08-04T06:40:10;100853.16;;;24.85;70.74
64544;BME280;50936;51.660;5.616;2022-08-04T06:43:05;100859.66;;;24.98;71.26
64544;BME280;50936;51.660;5.616;2022-08-04T06:45:34;100863.16;;;25.14;70.48
64544;BME280;50936;51.660;5.616;2022-08-04T06:48:04;100868.38;;;25.30;70.25
64544;BME280;50936;51.660;5.616;2022-08-04T06:50:36;100865.94;;;25.49;70.08
64544;BME280;50936;51.660;5.616;2022-08-04T06:53:24;100871.63;;;25.76;69.71
64544;BME280;50936;51.660;5.616;2022-08-04T06:55:53;100874.28;;;26.04;68.88
64544;BME280;50936;51.660;5.616;2022-08-04T06:58:22;100873.50;;;26.30;63.32
64544;BME280;50936;51.660;5.616;2022-08-04T07:00:51;100873.75;;;26.48;61.81
64544;BME280;50936;51.660;5.616;2022-08-04T07:03:20;100876.13;;;26.65;61.33
64544;BME280;50936;51.660;5.616;2022-08-04T07:05:50;100866.78;;;26.79;59.18
64544;BME280;50936;51.660;5.616;2022-08-04T07:08:17;100880.84;;;26.91;58.21
64544;BME280;50936;51.660;5.616;2022-08-04T07:10:45;100880.00;;;27.04;57.37
64544;BME280;50936;51.660;5.616;2022-08-04T07:13:13;100881.25;;;27.15;56.90
64544;BME280;50936;51.660;5.616;2022-08-04T07:15:43;100879.53;;;27.20;56.78
64544;BME280;50936;51.660;5.616;2022-08-04T07:18:12;100882.53;;;27.39;56.30
64544;BME280;50936;51.660;5.616;2022-08-04T07:20:43;100881.16;;;27.61;54.98
64544;BME280;50936;51.660;5.616;2022-08-04T07:23:15;100879.84;;;27.77;54.74
64544;BME280;50936;51.660;5.616;2022-08-04T07:25:49;100879.78;;;27.84;55.37
64544;BME280;50936;51.660;5.616;2022-08-04T07:28:38;100881.53;;;27.92;54.40
64544;BME280;50936;51.660;5.616;2022-08-04T07:31:13;100880.13;;;28.08;54.58
64544;BME280;50936;51.660;5.616;2022-08-04T07:34:01;100885.66;;;28.21;54.89
64544;BME280;50936;51.660;5.616;2022-08-04T07:36:49;100884.88;;;28.39;54.35
64544;BME280;50936;51.660;5.616;2022-08-04T07:39:23;100896.75;;;28.21;54.25
64544;BME280;50936;51.660;5.616;2022-08-04T07:41:56;100892.16;;;27.95;55.49
64544;BME280;50936;51.660;5.616;2022-08-04T07:44:24;100893.88;;;27.96;56.60
64544;BME280;50936;51.660;5.616;2022-08-04T07:46:52;100902.56;;;28.45;56.09
64544;BME280;50936;51.660;5.616;2022-08-04T07:49:19;100895.72;;;28.54;56.56
64544;BME280;50936;51.660;5.616;2022-08-04T07:52:07;100910.69;;;28.53;57.82
64544;BME280;50936;51.660;5.616;2022-08-04T07:54:34;100901.00;;;28.62;57.54
64544;BME280;50936;51.660;5.616;2022-08-04T07:57:02;100904.38;;;28.96;57.38
64544;BME280;50936;51.660;5.616;2022-08-04T07:59:29;100911.91;;;29.58;54.92
64544;BME280;50936;51.660;5.616;2022-08-04T08:01:59;100904.94;;;30.04;53.91
64544;BME280;50936;51.660;5.616;2022-08-04T08:04:28;100910.13;;;30.37;52.10
64544;BME280;50936;51.660;5.616;2022-08-04T08:06:58;100912.25;;;30.65;50.20
64544;BME280;50936;51.660;5.616;2022-08-04T08:09:25;100904.59;;;30.91;49.53
64544;BME280;50936;51.660;5.616;2022-08-04T08:11:52;100903.13;;;31.36;49.26
64544;BME280;50936;51.660;5.616;2022-08-04T08:14:40;100909.16;;;31.92;46.28
64544;BME280;50936;51.660;5.616;2022-08-04T08:17:08;100902.56;;;31.98;46.55
64544;BME280;50936;51.660;5.616;2022-08-04T08:19:35;100909.94;;;32.16;46.52
64544;BME280;50936;51.660;5.616;2022-08-04T08:22:03;100904.13;;;32.46;46.53
64544;BME280;50936;51.660;5.616;2022-08-04T08:24:34;100913.94;;;32.49;44.89
64544;BME280;50936;51.660;5.616;2022-08-04T08:27:03;100915.53;;;32.16;45.01
64544;BME280;50936;51.660;5.616;2022-08-04T08:29:33;100915.78;;;31.62;46.36
64544;BME280;50936;51.660;5.616;2022-08-04T08:32:02;100916.94;;;30.95;48.27
64544;BME280;50936;51.660;5.616;2022-08-04T08:34:35;100923.63;;;30.52;49.48
64544;BME280;50936;51.660;5.616;2022-08-04T08:47:10;100916.97;;;30.04;51.33
64544;BME280;50936;51.660;5.616;2022-08-04T09:02:01;100940.59;;;29.58;52.05
64544;BME280;50936;51.660;5.616;2022-08-04T09:13:16;100937.56;;;29.16;51.94
64544;BME280;50936;51.660;5.616;2022-08-04T09:16:20;100944.41;;;29.20;52.38
64544;BME280;50936;51.660;5.616;2022-08-04T09:22:21;100953.75;;;29.26;50.75
64544;BME280;50936;51.660;5.616;2022-08-04T09:25:12;100952.03;;;29.25;50.23
64544;BME280;50936;51.660;5.616;2022-08-04T09:27:54;100958.97;;;29.15;50.95
64544;BME280;50936;51.660;5.616;2022-08-04T09:39:09;100959.94;;;29.28;51.38
64544;BME280;50936;51.660;5.616;2022-08-04T09:45:13;100973.53;;;29.36;50.10
64544;BME280;50936;51.660;5.616;2022-08-04T09:48:19;100969.75;;;29.30;50.47
64544;BME280;50936;51.660;5.616;2022-08-04T09:50:58;100976.81;;;29.33;50.61
64544;BME280;50936;51.660;5.616;2022-08-04T09:56:38;100986.66;;;29.29;47.56
64544;BME280;50936;51.660;5.616;2022-08-04T09:59:25;100995.44;;;29.01;48.29
64544;BME280;50936;51.660;5.616;2022-08-04T10:01:58;101006.25;;;28.84;48.61
64544;BME280;50936;51.660;5.616;2022-08-04T10:04:34;101001.22;;;28.67;49.79
64544;BME280;50936;51.660;5.616;2022-08-04T10:07:28;101006.00;;;28.47;49.87
64544;BME280;50936;51.660;5.616;2022-08-04T10:10:02;101002.19;;;28.34;50.52
64544;BME280;50936;51.660;5.616;2022-08-04T10:18:44;101020.72;;;27.95;52.18
64544;BME280;50936;51.660;5.616;2022-08-04T10:21:40;101016.88;;;27.83;52.81
64544;BME280;50936;51.660;5.616;2022-08-04T10:25:04;101035.22;;;27.71;53.39
64544;BME280;50936;51.660;5.616;2022-08-04T10:27:59;101028.84;;;27.50;54.69
64544;BME280;50936;51.660;5.616;2022-08-04T10:30:35;101021.59;;;27.36;55.11
64544;BME280;50936;51.660;5.616;2022-08-04T10:33:22;101030.72;;;27.16;55.42
64544;BME280;50936;51.660;5.616;2022-08-04T10:36:03;101058.19;;;26.98;57.11
64544;BME280;50936;51.660;5.616;2022-08-04T10:38:59;101105.47;;;26.76;58.97
64544;BME280;50936;51.660;5.616;2022-08-04T10:44:59;101113.59;;;26.08;66.43
64544;BME280;50936;51.660;5.616;2022-08-04T10:47:53;101113.97;;;25.55;71.09
64544;BME280;50936;51.660;5.616;2022-08-04T10:50:28;101115.91;;;24.96;75.13
64544;BME280;50936;51.660;5.616;2022-08-04T10:53:02;101107.59;;;24.45;80.04
64544;BME280;50936;51.660;5.616;2022-08-04T10:55:43;101078.56;;;24.05;82.87
64544;BME280;50936;51.660;5.616;2022-08-04T10:58:49;101055.22;;;23.77;85.13
64544;BME280;50936;51.660;5.616;2022-08-04T11:01:26;101047.50;;;23.58;88.41
64544;BME280;50936;51.660;5.616;2022-08-04T11:04:36;101027.25;;;23.51;94.00
64544;BME280;50936;51.660;5.616;2022-08-04T11:07:09;101023.81;;;23.49;97.57
64544;BME280;50936;51.660;5.616;2022-08-04T11:09:39;100995.59;;;23.47;100.00
64544;BME280;50936;51.660;5.616;2022-08-04T11:12:16;100995.28;;;23.41;100.00
64544;BME280;50936;51.660;5.616;2022-08-04T11:15:09;101020.41;;;23.47;100.00
64544;BME280;50936;51.660;5.616;2022-08-04T11:17:42;101016.03;;;23.67;100.00
64544;BME280;50936;51.660;5.616;2022-08-04T11:20:39;101037.66;;;23.93;100.00
64544;BME280;50936;51.660;5.616;2022-08-04T11:23:13;101045.94;;;24.08;97.24
64544;BME280;50936;51.660;5.616;2022-08-04T11:25:54;101054.22;;;24.08;95.36
64544;BME280;50936;51.660;5.616;2022-08-04T11:31:07;101055.84;;;23.88;95.33
64544;BME280;50936;51.660;5.616;2022-08-04T11:34:02;101036.63;;;23.79;96.34
64544;BME280;50936;51.660;5.616;2022-08-04T11:36:48;101025.59;;;23.79;99.53
64544;BME280;50936;51.660;5.616;2022-08-04T11:39:34;101027.59;;;23.86;97.32
64544;BME280;50936;51.660;5.616;2022-08-04T11:45:06;101046.81;;;24.24;96.50
64544;BME280;50936;51.660;5.616;2022-08-04T11:48:10;101041.97;;;24.77;95.15
64544;BME280;50936;51.660;5.616;2022-08-04T11:50:49;101030.69;;;25.15;91.02
64544;BME280;50936;51.660;5.616;2022-08-04T11:53:22;101040.50;;;25.67;90.88
64544;BME280;50936;51.660;5.616;2022-08-04T11:56:05;101039.22;;;26.33;83.72
64544;BME280;50936;51.660;5.616;2022-08-04T11:58:38;101032.81;;;26.87;84.04
64544;BME280;50936;51.660;5.616;2022-08-04T12:07:13;101028.31;;;28.20;76.39
64544;BME280;50936;51.660;5.616;2022-08-04T12:22:34;101041.72;;;29.96;69.71
64544;BME280;50936;51.660;5.616;2022-08-04T12:25:13;101038.78;;;30.27;67.55
64544;BME280;50936;51.660;5.616;2022-08-04T12:27:48;101042.44;;;30.46;59.58
64544;BME280;50936;51.660;5.616;2022-08-04T12:30:21;101039.81;;;30.33;60.14
64544;BME280;50936;51.660;5.616;2022-08-04T12:33:11;101042.97;;;30.37;60.39
64544;BME280;50936;51.660;5.616;2022-08-04T12:38:48;101053.09;;;29.69;57.83
64544;BME280;50936;51.660;5.616;2022-08-04T12:41:24;101057.72;;;29.25;59.04
64544;BME280;50936;51.660;5.616;2022-08-04T12:44:06;101068.22;;;28.91;60.43
64544;BME280;50936;51.660;5.616;2022-08-04T12:46:58;101073.47;;;28.67;61.78
64544;BME280;50936;51.660;5.616;2022-08-04T12:49:48;101070.06;;;28.52;62.86
64544;BME280;50936;51.660;5.616;2022-08-04T12:52:27;101079.97;;;28.34;62.81
64544;BME280;50936;51.660;5.616;2022-08-04T12:55:28;101074.94;;;28.05;64.17
64544;BME280;50936;51.660;5.616;2022-08-04T12:57:58;101080.91;;;27.81;64.43
64544;BME280;50936;51.660;5.616;2022-08-04T13:00:32;101084.78;;;27.60;65.45
64544;BME280;50936;51.660;5.616;2022-08-04T13:03:12;101086.47;;;27.48;65.65
64544;BME280;50936;51.660;5.616;2022-08-04T13:05:42;101087.28;;;27.42;66.24
64544;BME280;50936;51.660;5.616;2022-08-04T13:08:12;101084.53;;;27.42;65.70
64544;BME280;50936;51.660;5.616;2022-08-04T13:10:47;101083.88;;;27.40;64.25
64544;BME280;50936;51.660;5.616;2022-08-04T13:13:20;101080.91;;;27.35;65.31
64544;BME280;50936;51.660;5.616;2022-08-04T13:16:18;101084.75;;;27.34;64.86
64544;BME280;50936;51.660;5.616;2022-08-04T13:18:57;101092.00;;;27.48;64.79
64544;BME280;50936;51.660;5.616;2022-08-04T13:21:31;101086.25;;;27.96;62.99
64544;BME280;50936;51.660;5.616;2022-08-04T13:24:21;101082.06;;;28.46;60.07
64544;BME280;50936;51.660;5.616;2022-08-04T13:27:06;101093.16;;;28.59;58.80
64544;BME280;50936;51.660;5.616;2022-08-04T13:29:43;101090.19;;;28.54;58.93
64544;BME280;50936;51.660;5.616;2022-08-04T13:32:30;101079.25;;;28.59;57.98
64544;BME280;50936;51.660;5.616;2022-08-04T13:35:00;101073.81;;;28.77;58.04
64544;BME280;50936;51.660;5.616;2022-08-04T13:37:38;101084.06;;;28.84;59.20
64544;BME280;50936;51.660;5.616;2022-08-04T13:40:11;101086.13;;;28.95;57.25
64544;BME280;50936;51.660;5.616;2022-08-04T13:42:45;101087.78;;;29.03;56.88
64544;BME280;50936;51.660;5.616;2022-08-04T13:45:22;101076.25;;;29.06;55.60
64544;BME280;50936;51.660;5.616;2022-08-04T13:48:01;101085.00;;;29.09;56.53
64544;BME280;50936;51.660;5.616;2022-08-04T13:50:49;101075.34;;;29.18;57.16
64544;BME280;50936;51.660;5.616;2022-08-04T13:53:17;101078.56;;;29.47;56.50
64544;BME280;50936;51.660;5.616;2022-08-04T13:55:47;101068.63;;;30.02;56.37
64544;BME280;50936;51.660;5.616;2022-08-04T13:58:29;101063.13;;;30.57;54.39
64544;BME280;50936;51.660;5.616;2022-08-04T14:01:09;101065.84;;;30.94;53.33
64544;BME280;50936;51.660;5.616;2022-08-04T14:03:56;101063.22;;;31.53;48.91
64544;BME280;50936;51.660;5.616;2022-08-04T14:06:33;101062.63;;;31.87;48.84
64544;BME280;50936;51.660;5.616;2022-08-04T14:09:14;101063.00;;;32.14;46.21
64544;BME280;50936;51.660;5.616;2022-08-04T14:11:51;101059.97;;;32.15;46.59
64544;BME280;50936;51.660;5.616;2022-08-04T14:14:51;101052.03;;;32.36;45.59
64544;BME280;50936;51.660;5.616;2022-08-04T14:17:23;101060.84;;;32.56;44.48
64544;BME280;50936;51.660;5.616;2022-08-04T14:19:58;101053.78;;;32.66;42.29
64544;BME280;50936;51.660;5.616;2022-08-04T14:30:34;101053.59;;;33.13;43.41
64544;BME280;50936;51.660;5.616;2022-08-04T14:33:11;101057.88;;;33.32;42.30
64544;BME280;50936;51.660;5.616;2022-08-04T14:35:59;101048.72;;;33.54;41.58
64544;BME280;50936;51.660;5.616;2022-08-04T14:38:50;101050.94;;;33.69;41.60
64544;BME280;50936;51.660;5.616;2022-08-04T14:41:29;101043.78;;;33.61;41.02
64544;BME280;50936;51.660;5.616;2022-08-04T14:44:09;101045.06;;;33.70;41.53
64544;BME280;50936;51.660;5.616;2022-08-04T14:46:51;101045.72;;;33.78;41.38
64544;BME280;50936;51.660;5.616;2022-08-04T14:49:21;101040.38;;;33.93;40.77
64544;BME280;50936;51.660;5.616;2022-08-04T14:51:58;101031.84;;;34.05;39.27
64544;BME280;50936;51.660;5.616;2022-08-04T14:54:34;101038.56;;;34.04;39.00
64544;BME280;50936;51.660;5.616;2022-08-04T14:57:05;101045.59;;;34.06;38.86
64544;BME280;50936;51.660;5.616;2022-08-04T14:59:48;101047.16;;;33.97;38.58
64544;BME280;50936;51.660;5.616;2022-08-04T15:02:27;101037.50;;;33.88;37.85
64544;BME280;50936;51.660;5.616;2022-08-04T15:04:56;101040.38;;;33.59;36.81
64544;BME280;50936;51.660;5.616;2022-08-04T15:07:44;101049.53;;;33.21;38.05
64544;BME280;50936;51.660;5.616;2022-08-04T15:10:11;101049.81;;;32.90;38.13
64544;BME280;50936;51.660;5.616;2022-08-04T15:12:39;101048.50;;;32.81;38.47
64544;BME280;50936;51.660;5.616;2022-08-04T15:15:06;101052.00;;;32.88;38.55
64544;BME280;50936;51.660;5.616;2022-08-04T15:17:53;101042.69;;;32.99;38.24
64544;BME280;50936;51.660;5.616;2022-08-04T15:20:21;101044.91;;;32.97;38.17
64544;BME280;50936;51.660;5.616;2022-08-04T15:22:48;101039.59;;;32.84;38.28
64544;BME280;50936;51.660;5.616;2022-08-04T15:25:15;101052.75;;;32.84;39.29
64544;BME280;50936;51.660;5.616;2022-08-04T15:27:47;101052.72;;;32.95;38.97
64544;BME280;50936;51.660;5.616;2022-08-04T15:30:16;101050.88;;;32.89;37.95
64544;BME280;50936;51.660;5.616;2022-08-04T15:32:50;101035.34;;;32.65;38.38
64544;BME280;50936;51.660;5.616;2022-08-04T15:35:23;101031.63;;;32.23;39.56
64544;BME280;50936;51.660;5.616;2022-08-04T15:38:08;101042.84;;;31.76;40.00
64544;BME280;50936;51.660;5.616;2022-08-04T15:40:56;101042.66;;;31.24;41.34
64544;BME280;50936;51.660;5.616;2022-08-04T15:49:29;101041.97;;;30.12;43.91
64544;BME280;50936;51.660;5.616;2022-08-04T15:52:02;101034.44;;;29.94;44.57
64544;BME280;50936;51.660;5.616;2022-08-04T15:54:38;101027.34;;;29.73;44.88
64544;BME280;50936;51.660;5.616;2022-08-04T15:57:56;101028.72;;;29.64;45.40
64544;BME280;50936;51.660;5.616;2022-08-04T16:00:27;101028.34;;;29.61;45.36
64544;BME280;50936;51.660;5.616;2022-08-04T16:02:54;101030.03;;;29.62;45.26
64544;BME280;50936;51.660;5.616;2022-08-04T16:08:00;101029.81;;;29.88;44.82
64544;BME280;50936;51.660;5.616;2022-08-04T16:10:40;101028.88;;;29.94;44.41
64544;BME280;50936;51.660;5.616;2022-08-04T16:13:11;101019.00;;;29.99;44.75
64544;BME280;50936;51.660;5.616;2022-08-04T16:21:03;101028.56;;;30.21;44.31
64544;BME280;50936;51.660;5.616;2022-08-04T16:34:31;101019.25;;;30.34;42.83
64544;BME280;50936;51.660;5.616;2022-08-04T16:37:17;101017.13;;;30.11;43.68
64544;BME280;50936;51.660;5.616;2022-08-04T16:39:46;101016.81;;;30.01;44.06
64544;BME280;50936;51.660;5.616;2022-08-04T16:45:00;101015.72;;;30.39;43.58
64544;BME280;50936;51.660;5.616;2022-08-04T16:50:18;101005.13;;;30.78;42.41
64544;BME280;50936;51.660;5.616;2022-08-04T16:52:49;101011.47;;;30.85;42.00
64544;BME280;50936;51.660;5.616;2022-08-04T16:55:26;101007.56;;;30.86;42.14
64544;BME280;50936;51.660;5.616;2022-08-04T16:57:57;101014.88;;;30.87;42.09
64544;BME280;50936;51.660;5.616;2022-08-04T17:00:35;100998.31;;;30.92;41.46
64544;BME280;50936;51.660;5.616;2022-08-04T17:03:08;101009.28;;;30.87;41.32
64544;BME280;50936;51.660;5.616;2022-08-04T17:05:37;101016.75;;;30.75;41.62
64544;BME280;50936;51.660;5.616;2022-08-04T17:08:07;101007.50;;;30.62;40.63
64544;BME280;50936;51.660;5.616;2022-08-04T17:10:54;101005.34;;;30.27;41.79
64544;BME280;50936;51.660;5.616;2022-08-04T17:13:34;101014.22;;;30.06;42.27
64544;BME280;50936;51.660;5.616;2022-08-04T17:16:27;101017.44;;;29.84;42.40
64544;BME280;50936;51.660;5.616;2022-08-04T17:18:54;101012.44;;;29.68;42.77
64544;BME280;50936;51.660;5.616;2022-08-04T17:21:24;101015.97;;;29.56;43.37
64544;BME280;50936;51.660;5.616;2022-08-04T17:23:57;101013.16;;;29.38;43.36
64544;BME280;50936;51.660;5.616;2022-08-04T17:26:44;101024.66;;;29.16;43.90
64544;BME280;50936;51.660;5.616;2022-08-04T17:29:23;101020.63;;;29.06;44.46
64544;BME280;50936;51.660;5.616;2022-08-04T17:32:19;101022.81;;;28.97;44.77
64544;BME280;50936;51.660;5.616;2022-08-04T17:34:49;101022.00;;;28.90;44.63
64544;BME280;50936;51.660;5.616;2022-08-04T17:37:17;101033.22;;;28.76;44.56
64544;BME280;50936;51.660;5.616;2022-08-04T17:40:09;101026.88;;;28.63;44.60
64544;BME280;50936;51.660;5.616;2022-08-04T17:42:39;101023.53;;;28.54;44.76
64544;BME280;50936;51.660;5.616;2022-08-04T17:45:14;101026.94;;;28.42;45.23
64544;BME280;50936;51.660;5.616;2022-08-04T17:48:06;101029.13;;;28.34;45.34
64544;BME280;50936;51.660;5.616;2022-08-04T17:50:49;101035.13;;;28.24;45.47
64544;BME280;50936;51.660;5.616;2022-08-04T17:53:16;101027.47;;;28.19;45.57
64544;BME280;50936;51.660;5.616;2022-08-04T17:56:31;101030.88;;;28.15;45.89
64544;BME280;50936;51.660;5.616;2022-08-04T17:59:24;101033.47;;;28.10;46.14
64544;BME280;50936;51.660;5.616;2022-08-04T18:02:22;101042.88;;;28.02;45.89
64544;BME280;50936;51.660;5.616;2022-08-04T18:05:03;101043.97;;;27.94;46.00